createdAt,value
2023-04-15T00:01:19.806Z,100781.00
2023-04-15T00:03:53.901Z,100773.00
2023-04-15T00:06:22.683Z,100783.00
2023-04-15T00:08:51.846Z,100778.00
2023-04-15T00:11:20.325Z,100781.00
2023-04-15T00:13:49.632Z,100745.00
2023-04-15T00:16:18.141Z,100772.00
2023-04-15T00:18:47.239Z,100764.00
2023-04-15T00:21:17.379Z,100771.00
2023-04-15T00:23:50.121Z,100779.00
2023-04-15T00:26:19.269Z,100784.00
2023-04-15T00:28:49.147Z,100773.00
2023-04-15T00:31:18.365Z,100777.00
2023-04-15T00:33:47.162Z,100778.00
2023-04-15T00:36:17.895Z,100772.00
2023-04-15T00:38:46.819Z,100765.00
2023-04-15T00:41:15.243Z,100773.00
2023-04-15T00:43:44.610Z,100777.00
2023-04-15T00:46:16.801Z,100775.00
2023-04-15T00:48:45.988Z,100781.00
2023-04-15T00:51:15.944Z,100773.00
2023-04-15T00:53:44.727Z,100789.00
2023-04-15T00:56:13.451Z,100785.00
2023-04-15T00:58:43.676Z,100782.00
2023-04-15T01:01:12.142Z,100776.00
2023-04-15T01:03:41.472Z,100784.00
2023-04-15T01:06:09.845Z,100778.00
2023-04-15T01:08:39.280Z,100766.00
2023-04-15T01:11:07.923Z,100780.00
2023-04-15T01:13:36.921Z,100784.00
2023-04-15T01:16:05.600Z,100789.00
2023-04-15T01:18:34.039Z,100741.00
2023-04-15T01:21:03.985Z,100788.00
2023-04-15T01:23:34.149Z,100788.00
2023-04-15T01:26:05.175Z,100791.00
2023-04-15T01:28:34.254Z,100778.00
2023-04-15T01:31:10.795Z,100795.00
2023-04-15T01:33:39.485Z,100783.00
2023-04-15T01:36:11.184Z,100788.00
2023-04-15T01:38:39.990Z,100784.00
2023-04-15T01:41:09.526Z,100757.00
2023-04-15T01:43:38.228Z,100787.00
2023-04-15T01:46:07.109Z,100721.00
2023-04-15T01:48:35.528Z,100777.00
2023-04-15T01:51:03.595Z,100774.00
2023-04-15T01:53:31.677Z,100743.00
2023-04-15T01:56:00.033Z,100785.00
2023-04-15T01:58:29.607Z,100766.00
2023-04-15T02:00:58.226Z,100788.00
2023-04-15T02:03:26.551Z,100789.00
2023-04-15T02:05:54.798Z,100757.00
2023-04-15T02:08:23.173Z,100758.00
2023-04-15T02:10:51.285Z,100744.00
2023-04-15T02:13:19.941Z,100766.00
2023-04-15T02:15:53.456Z,100798.00
2023-04-15T02:18:21.675Z,100773.00
2023-04-15T02:20:49.896Z,100797.00
2023-04-15T02:23:17.997Z,100763.00
2023-04-15T02:25:53.458Z,100806.00
2023-04-15T02:28:22.682Z,100763.00
2023-04-15T02:30:53.483Z,100814.00
2023-04-15T02:33:22.965Z,100819.00
2023-04-15T02:35:51.158Z,100803.00
2023-04-15T02:38:20.326Z,100814.00
2023-04-15T02:40:49.721Z,100820.00
2023-04-15T02:43:18.634Z,100828.00
2023-04-15T02:45:48.696Z,100829.00
2023-04-15T02:48:20.293Z,100825.00
2023-04-15T02:50:49.568Z,100832.00
2023-04-15T02:53:18.419Z,100835.00
2023-04-15T02:55:46.910Z,100831.00
2023-04-15T02:58:15.202Z,100829.00
2023-04-15T03:00:44.174Z,100843.00
2023-04-15T03:03:15.321Z,100844.00
2023-04-15T03:05:46.661Z,100848.00
2023-04-15T03:08:15.840Z,100844.00
2023-04-15T03:10:44.070Z,100843.00
2023-04-15T03:13:12.384Z,100852.00
2023-04-15T03:15:40.704Z,100833.00
2023-04-15T03:18:09.214Z,100854.00
2023-04-15T03:20:37.770Z,100832.00
2023-04-15T03:23:07.720Z,100830.00
2023-04-15T03:25:37.400Z,100829.00
2023-04-15T03:28:06.296Z,100861.00
2023-04-15T03:30:34.593Z,100774.00
2023-04-15T03:33:02.862Z,100830.00
2023-04-15T03:35:31.306Z,100844.00
2023-04-15T03:37:59.574Z,100849.00
2023-04-15T03:40:29.311Z,100828.00
2023-04-15T03:42:57.511Z,100847.00
2023-04-15T03:45:26.651Z,100831.00
2023-04-15T03:47:54.893Z,100812.00
2023-04-15T03:50:23.195Z,100862.00
2023-04-15T03:52:51.413Z,100867.00
2023-04-15T03:55:22.564Z,100855.00
2023-04-15T03:57:52.093Z,100828.00
2023-04-15T04:00:23.241Z,100843.00
2023-04-15T04:02:51.500Z,100834.00
2023-04-15T04:05:19.796Z,100832.00
2023-04-15T04:07:47.947Z,100866.00
2023-04-15T04:10:16.457Z,100887.00
2023-04-15T04:12:44.870Z,100875.00
2023-04-15T04:15:14.878Z,100828.00
2023-04-15T04:17:45.923Z,100870.00
2023-04-15T04:20:14.752Z,100912.00
2023-04-15T04:22:43.775Z,100915.00
2023-04-15T04:25:12.826Z,100844.00
2023-04-15T04:27:41.229Z,100900.00
2023-04-15T04:30:10.680Z,100881.00
2023-04-15T04:32:41.044Z,100888.00
2023-04-15T04:35:10.488Z,100895.00
2023-04-15T04:37:38.823Z,100896.00
2023-04-15T04:40:09.505Z,100887.00
2023-04-15T04:42:39.897Z,100861.00
2023-04-15T04:45:10.143Z,100896.00
2023-04-15T04:47:44.218Z,100899.00
2023-04-15T04:50:12.892Z,100863.00
2023-04-15T04:52:41.277Z,100871.00
2023-04-15T04:55:10.411Z,100938.00
2023-04-15T04:57:39.596Z,100921.00
2023-04-15T05:00:09.901Z,100932.00
2023-04-15T05:02:39.700Z,100906.00
2023-04-15T05:05:09.468Z,100893.00
2023-04-15T05:07:37.843Z,100895.00
2023-04-15T05:10:07.945Z,100912.00
2023-04-15T05:12:37.424Z,100907.00
2023-04-15T05:15:07.215Z,100930.00
2023-04-15T05:17:35.684Z,100895.00
2023-04-15T05:20:06.051Z,100918.00
2023-04-15T05:22:34.317Z,100875.00
2023-04-15T05:25:02.487Z,100884.00
2023-04-15T05:27:30.844Z,100879.00
2023-04-15T05:29:58.979Z,100950.00
2023-04-15T05:32:27.346Z,100936.00
2023-04-15T05:34:56.024Z,100965.00
2023-04-15T05:37:25.583Z,100960.00
2023-04-15T05:39:53.970Z,100927.00
2023-04-15T05:42:22.362Z,100978.00
2023-04-15T05:44:50.907Z,100981.00
2023-04-15T05:47:19.399Z,100954.00
2023-04-15T05:49:47.588Z,100962.00
2023-04-15T05:52:16.668Z,100961.00
2023-04-15T05:54:46.641Z,100967.00
2023-04-15T05:57:14.918Z,100969.00
2023-04-15T05:59:43.294Z,100966.00
2023-04-15T06:02:12.109Z,100977.00
2023-04-15T06:04:40.609Z,100952.00
2023-04-15T06:07:08.907Z,100978.00
2023-04-15T06:09:37.311Z,100963.00
2023-04-15T06:12:12.388Z,100972.00
2023-04-15T06:14:40.685Z,101012.00
2023-04-15T06:17:09.107Z,100998.00
2023-04-15T06:19:37.360Z,100990.00
2023-04-15T06:22:07.231Z,100985.00
2023-04-15T06:24:37.044Z,100985.00
2023-04-15T06:27:06.602Z,100965.00
2023-04-15T06:29:38.058Z,100980.00
2023-04-15T06:32:06.959Z,101002.00
2023-04-15T06:34:35.637Z,101009.00
2023-04-15T06:37:05.741Z,101044.00
2023-04-15T06:39:34.579Z,101005.00
2023-04-15T06:42:03.378Z,100988.00
2023-04-15T06:44:34.024Z,101026.00
2023-04-15T06:47:02.377Z,101054.00
2023-04-15T06:49:30.552Z,101025.00
2023-04-15T06:51:59.140Z,101058.00
2023-04-15T06:54:27.455Z,101043.00
2023-04-15T06:56:55.936Z,101063.00
2023-04-15T06:59:24.183Z,101029.00
2023-04-15T07:01:53.750Z,101067.00
2023-04-15T07:04:21.967Z,101069.00
2023-04-15T07:06:50.049Z,101041.00
2023-04-15T07:09:18.203Z,101059.00
2023-04-15T07:11:46.549Z,101070.00
2023-04-15T07:14:14.689Z,101062.00
2023-04-15T07:16:43.001Z,101079.00
2023-04-15T07:19:12.711Z,101034.00
2023-04-15T07:21:41.999Z,101072.00
2023-04-15T07:24:12.835Z,101090.00
2023-04-15T07:26:41.147Z,101099.00
2023-04-15T07:29:09.575Z,101089.00
2023-04-15T07:31:37.878Z,101104.00
2023-04-15T07:34:08.582Z,101095.00
2023-04-15T07:36:38.135Z,101092.00
2023-04-15T07:39:06.409Z,101078.00
2023-04-15T07:41:34.838Z,101101.00
2023-04-15T07:44:03.377Z,101077.00
2023-04-15T07:46:31.946Z,101090.00
2023-04-15T07:49:00.289Z,101107.00
2023-04-15T07:51:29.764Z,101100.00
2023-04-15T07:53:59.511Z,101104.00
2023-04-15T07:56:27.834Z,101090.00
2023-04-15T07:58:56.027Z,101105.00
2023-04-15T08:01:24.486Z,101106.00
2023-04-15T08:03:55.610Z,101119.00
2023-04-15T08:06:24.446Z,101108.00
2023-04-15T08:08:52.869Z,101105.00
2023-04-15T08:11:23.080Z,101078.00
2023-04-15T08:13:51.229Z,101110.00
2023-04-15T08:16:22.568Z,101125.00
2023-04-15T08:18:53.340Z,101104.00
2023-04-15T08:21:22.728Z,101099.00
2023-04-15T08:23:53.755Z,101095.00
2023-04-15T08:26:23.807Z,101133.00
2023-04-15T08:28:52.386Z,101093.00
2023-04-15T08:31:21.982Z,101122.00
2023-04-15T08:33:52.117Z,101096.00
2023-04-15T08:36:21.705Z,101081.00
2023-04-15T08:38:49.865Z,101104.00
2023-04-15T08:41:25.335Z,101123.00
2023-04-15T08:43:56.154Z,101137.00
2023-04-15T08:46:24.964Z,101139.00
2023-04-15T08:48:56.404Z,101131.00
2023-04-15T08:51:25.682Z,101147.00
2023-04-15T08:53:54.330Z,101114.00
2023-04-15T08:56:27.697Z,101103.00
2023-04-15T08:58:56.689Z,101152.00
2023-04-15T09:01:26.000Z,101123.00
2023-04-15T09:03:55.603Z,101142.00
2023-04-15T09:06:25.016Z,101159.00
